Terminal Aerodrome Forecast
Issued by NWS

Home | Current Version | Previous Version | Text Only | Print | Product List | Glossary On
Versions: 1 2 3 4 5 6 7 8 9 10 11 12 13 14 15 16 17 18 19 20
000
FTUS43 KLSX 291600 AAA
TAFSUS
TAF AMD
KSUS 291600Z 2916/3012 19007KT P6SM SCT060 BKN250
     FM292200 17008KT P6SM VCTS SCT050CB
     FM300200 VRB05KT P6SM SCT050 BKN100=

USA.gov is the U.S. government's official web portal to all federal, state and local government web resources and services.